sensor_id;sensor_type;location;lat;lon;timestamp;pressure;altitude;pressure_sealevel;temperature;humidity
77212;BME280;66206;0.000;0.000;2023-06-22T00:01:58;98011.30;;;29.17;27.52
77212;BME280;66206;0.000;0.000;2023-06-22T00:04:24;98003.19;;;29.31;27.51
77212;BME280;66206;0.000;0.000;2023-06-22T00:06:51;97997.46;;;29.33;27.51
77212;BME280;66206;0.000;0.000;2023-06-22T00:09:18;97999.59;;;29.35;27.46
77212;BME280;66206;0.000;0.000;2023-06-22T00:11:44;98005.11;;;29.46;27.46
77212;BME280;66206;0.000;0.000;2023-06-22T00:14:11;98006.47;;;29.27;27.49
77212;BME280;66206;0.000;0.000;2023-06-22T00:16:37;98005.81;;;29.32;27.37
77212;BME280;66206;0.000;0.000;2023-06-22T00:19:04;97999.90;;;29.25;27.48
77212;BME280;66206;0.000;0.000;2023-06-22T00:21:30;98001.58;;;29.29;27.52
77212;BME280;66206;0.000;0.000;2023-06-22T00:23:57;98012.78;;;29.20;27.49
77212;BME280;66206;0.000;0.000;2023-06-22T00:26:24;98014.43;;;29.13;27.49
77212;BME280;66206;0.000;0.000;2023-06-22T00:28:50;98013.49;;;29.35;27.58
77212;BME280;66206;0.000;0.000;2023-06-22T00:31:17;98021.74;;;29.13;27.52
77212;BME280;66206;0.000;0.000;2023-06-22T00:33:43;98025.09;;;29.48;27.45
77212;BME280;66206;0.000;0.000;2023-06-22T00:36:10;98029.35;;;29.25;27.44
77212;BME280;66206;0.000;0.000;2023-06-22T00:38:37;98035.83;;;29.25;27.53
77212;BME280;66206;0.000;0.000;2023-06-22T00:41:03;98039.93;;;29.32;27.53
77212;BME280;66206;0.000;0.000;2023-06-22T00:43:30;98044.01;;;29.26;27.56
77212;BME280;66206;0.000;0.000;2023-06-22T00:45:56;98044.68;;;29.35;27.55
77212;BME280;66206;0.000;0.000;2023-06-22T00:48:23;98047.25;;;29.41;27.53
77212;BME280;66206;0.000;0.000;2023-06-22T00:50:50;98045.66;;;29.30;27.54
77212;BME280;66206;0.000;0.000;2023-06-22T00:53:16;98053.89;;;29.29;27.43
77212;BME280;66206;0.000;0.000;2023-06-22T00:55:44;98055.35;;;29.22;27.63
77212;BME280;66206;0.000;0.000;2023-06-22T00:58:11;98041.43;;;29.27;27.56
77212;BME280;66206;0.000;0.000;2023-06-22T01:00:38;98030.13;;;29.31;27.64
77212;BME280;66206;0.000;0.000;2023-06-22T01:03:05;98030.16;;;29.15;27.58
77212;BME280;66206;0.000;0.000;2023-06-22T01:05:31;98034.41;;;29.37;27.55
77212;BME280;66206;0.000;0.000;2023-06-22T01:08:01;98039.48;;;29.16;27.58
77212;BME280;66206;0.000;0.000;2023-06-22T01:10:28;98040.90;;;29.17;27.54
77212;BME280;66206;0.000;0.000;2023-06-22T01:12:52;98036.72;;;29.28;27.58
77212;BME280;66206;0.000;0.000;2023-06-22T01:15:21;98025.33;;;29.29;27.53
77212;BME280;66206;0.000;0.000;2023-06-22T01:17:49;98017.66;;;29.38;27.58
77212;BME280;66206;0.000;0.000;2023-06-22T01:21:59;98003.47;;;29.16;27.61
77212;BME280;66206;0.000;0.000;2023-06-22T01:23:29;97994.45;;;29.26;27.47
77212;BME280;66206;0.000;0.000;2023-06-22T01:25:56;97982.32;;;29.36;27.50
77212;BME280;66206;0.000;0.000;2023-06-22T01:28:24;97974.11;;;29.14;27.58
77212;BME280;66206;0.000;0.000;2023-06-22T01:30:47;97970.04;;;29.21;27.60
77212;BME280;66206;0.000;0.000;2023-06-22T01:33:15;97965.20;;;29.33;27.58
77212;BME280;66206;0.000;0.000;2023-06-22T01:35:42;97957.40;;;29.19;27.62
77212;BME280;66206;0.000;0.000;2023-06-22T01:38:09;97960.14;;;29.34;27.54
77212;BME280;66206;0.000;0.000;2023-06-22T01:40:36;97960.79;;;29.35;27.53
77212;BME280;66206;0.000;0.000;2023-06-22T01:43:03;97966.77;;;29.22;27.62
77212;BME280;66206;0.000;0.000;2023-06-22T01:45:30;97980.27;;;29.11;27.60
77212;BME280;66206;0.000;0.000;2023-06-22T01:47:56;97985.16;;;29.15;27.60
77212;BME280;66206;0.000;0.000;2023-06-22T01:50:23;97981.10;;;29.26;27.63
77212;BME280;66206;0.000;0.000;2023-06-22T01:52:50;97977.31;;;29.21;27.66
77212;BME280;66206;0.000;0.000;2023-06-22T01:55:16;97977.02;;;29.30;27.63
77212;BME280;66206;0.000;0.000;2023-06-22T01:57:43;97979.34;;;29.22;27.55
77212;BME280;66206;0.000;0.000;2023-06-22T02:00:11;97977.46;;;29.39;27.55
77212;BME280;66206;0.000;0.000;2023-06-22T02:02:38;97975.84;;;29.46;27.63
77212;BME280;66206;0.000;0.000;2023-06-22T02:05:06;97975.34;;;29.38;27.62
77212;BME280;66206;0.000;0.000;2023-06-22T02:07:34;97975.60;;;29.30;27.60
77212;BME280;66206;0.000;0.000;2023-06-22T02:10:02;97977.99;;;29.24;27.60
77212;BME280;66206;0.000;0.000;2023-06-22T02:12:30;97983.17;;;29.32;27.58
77212;BME280;66206;0.000;0.000;2023-06-22T02:14:58;97993.12;;;29.19;27.53
77212;BME280;66206;0.000;0.000;2023-06-22T02:17:25;97998.28;;;29.18;27.61
77212;BME280;66206;0.000;0.000;2023-06-22T02:19:52;97999.63;;;29.29;27.63
77212;BME280;66206;0.000;0.000;2023-06-22T02:22:19;98000.54;;;29.20;27.61
77212;BME280;66206;0.000;0.000;2023-06-22T02:24:45;97999.88;;;29.16;27.60
77212;BME280;66206;0.000;0.000;2023-06-22T02:27:12;97994.34;;;29.36;27.65
77212;BME280;66206;0.000;0.000;2023-06-22T02:29:38;97992.64;;;29.25;27.61
77212;BME280;66206;0.000;0.000;2023-06-22T02:32:05;98004.33;;;29.40;27.64
77212;BME280;66206;0.000;0.000;2023-06-22T02:34:32;97998.46;;;29.23;27.66
77212;BME280;66206;0.000;0.000;2023-06-22T02:36:58;97992.16;;;29.31;27.61
77212;BME280;66206;0.000;0.000;2023-06-22T02:39:25;97991.84;;;29.18;27.67
77212;BME280;66206;0.000;0.000;2023-06-22T02:41:52;97997.76;;;29.30;27.66
77212;BME280;66206;0.000;0.000;2023-06-22T02:44:19;98019.35;;;29.37;27.66
77212;BME280;66206;0.000;0.000;2023-06-22T02:46:46;98040.73;;;29.24;27.72
77212;BME280;66206;0.000;0.000;2023-06-22T02:49:13;98063.50;;;29.14;27.75
77212;BME280;66206;0.000;0.000;2023-06-22T02:51:45;98078.52;;;29.14;27.81
77212;BME280;66206;0.000;0.000;2023-06-22T02:54:07;98099.12;;;29.18;27.73
77212;BME280;66206;0.000;0.000;2023-06-22T02:56:33;98112.28;;;29.33;27.72
77212;BME280;66206;0.000;0.000;2023-06-22T02:59:00;98115.39;;;29.18;27.72
77212;BME280;66206;0.000;0.000;2023-06-22T03:01:26;98113.24;;;29.29;27.75
77212;BME280;66206;0.000;0.000;2023-06-22T03:03:53;98113.04;;;29.41;27.67
77212;BME280;66206;0.000;0.000;2023-06-22T03:06:20;98110.65;;;29.47;27.64
77212;BME280;66206;0.000;0.000;2023-06-22T03:08:46;98114.27;;;29.14;27.70
77212;BME280;66206;0.000;0.000;2023-06-22T03:11:13;98113.86;;;29.17;27.72
77212;BME280;66206;0.000;0.000;2023-06-22T03:13:39;98110.45;;;29.25;27.63
77212;BME280;66206;0.000;0.000;2023-06-22T03:16:06;98110.10;;;29.32;27.67
77212;BME280;66206;0.000;0.000;2023-06-22T03:18:33;98104.07;;;29.32;27.67
77212;BME280;66206;0.000;0.000;2023-06-22T03:20:59;98095.95;;;29.25;27.64
77212;BME280;66206;0.000;0.000;2023-06-22T03:23:26;98096.16;;;29.19;27.67
77212;BME280;66206;0.000;0.000;2023-06-22T03:25:52;98098.57;;;29.31;27.56
77212;BME280;66206;0.000;0.000;2023-06-22T03:28:19;98094.64;;;29.17;27.65
77212;BME280;66206;0.000;0.000;2023-06-22T03:30:46;98084.86;;;29.43;27.61
77212;BME280;66206;0.000;0.000;2023-06-22T03:33:12;98082.87;;;29.39;27.58
77212;BME280;66206;0.000;0.000;2023-06-22T03:35:39;98077.95;;;29.30;27.61
77212;BME280;66206;0.000;0.000;2023-06-22T03:38:05;98070.57;;;29.18;27.60
77212;BME280;66206;0.000;0.000;2023-06-22T03:40:32;98070.69;;;29.19;27.65
77212;BME280;66206;0.000;0.000;2023-06-22T03:42:59;98066.99;;;29.09;27.69
77212;BME280;66206;0.000;0.000;2023-06-22T03:45:25;98059.91;;;29.37;27.62
77212;BME280;66206;0.000;0.000;2023-06-22T03:47:52;98067.14;;;29.24;27.69
77212;BME280;66206;0.000;0.000;2023-06-22T03:50:18;98064.25;;;29.38;27.61
77212;BME280;66206;0.000;0.000;2023-06-22T03:52:45;98056.54;;;29.36;27.64
77212;BME280;66206;0.000;0.000;2023-06-22T03:55:12;98045.87;;;29.12;27.63
77212;BME280;66206;0.000;0.000;2023-06-22T03:57:38;98047.83;;;29.43;27.65
77212;BME280;66206;0.000;0.000;2023-06-22T04:00:05;98041.07;;;29.20;27.66
77212;BME280;66206;0.000;0.000;2023-06-22T04:02:32;98031.53;;;29.29;27.63
77212;BME280;66206;0.000;0.000;2023-06-22T04:04:58;98034.71;;;29.30;27.68
77212;BME280;66206;0.000;0.000;2023-06-22T04:07:25;98037.71;;;29.29;27.63
77212;BME280;66206;0.000;0.000;2023-06-22T04:09:52;98026.77;;;29.14;27.63
77212;BME280;66206;0.000;0.000;2023-06-22T04:12:18;98024.77;;;29.11;27.70
77212;BME280;66206;0.000;0.000;2023-06-22T04:14:45;98021.79;;;29.18;27.67
77212;BME280;66206;0.000;0.000;2023-06-22T04:17:11;98011.63;;;29.19;27.67
77212;BME280;66206;0.000;0.000;2023-06-22T04:19:38;97997.15;;;29.45;27.66
77212;BME280;66206;0.000;0.000;2023-06-22T04:22:05;98004.20;;;29.07;27.75
77212;BME280;66206;0.000;0.000;2023-06-22T04:24:31;98015.62;;;29.26;27.69
77212;BME280;66206;0.000;0.000;2023-06-22T04:26:58;98001.05;;;29.08;27.69
77212;BME280;66206;0.000;0.000;2023-06-22T04:29:24;97979.08;;;29.20;27.74
77212;BME280;66206;0.000;0.000;2023-06-22T04:31:51;97979.04;;;29.20;27.67
77212;BME280;66206;0.000;0.000;2023-06-22T04:34:17;97996.37;;;29.17;27.75
77212;BME280;66206;0.000;0.000;2023-06-22T04:36:44;97997.45;;;29.22;27.73
77212;BME280;66206;0.000;0.000;2023-06-22T04:39:11;97978.17;;;29.14;27.72
77212;BME280;66206;0.000;0.000;2023-06-22T04:41:38;97961.40;;;29.21;27.68
77212;BME280;66206;0.000;0.000;2023-06-22T04:44:05;97958.60;;;29.33;27.66
77212;BME280;66206;0.000;0.000;2023-06-22T04:46:31;97962.66;;;29.30;27.69
77212;BME280;66206;0.000;0.000;2023-06-22T04:48:58;97966.34;;;29.29;27.71
77212;BME280;66206;0.000;0.000;2023-06-22T04:51:24;97967.09;;;29.39;27.64
77212;BME280;66206;0.000;0.000;2023-06-22T04:53:51;97967.95;;;29.46;27.60
77212;BME280;66206;0.000;0.000;2023-06-22T04:56:17;97962.60;;;29.23;27.72
77212;BME280;66206;0.000;0.000;2023-06-22T04:58:44;97948.38;;;29.13;27.68
77212;BME280;66206;0.000;0.000;2023-06-22T05:01:11;97952.23;;;29.20;27.75
77212;BME280;66206;0.000;0.000;2023-06-22T05:03:37;97961.77;;;29.21;27.71
77212;BME280;66206;0.000;0.000;2023-06-22T05:06:04;97965.54;;;29.14;27.69
77212;BME280;66206;0.000;0.000;2023-06-22T05:08:30;97964.03;;;29.18;27.71
77212;BME280;66206;0.000;0.000;2023-06-22T05:10:57;97956.49;;;29.25;27.62
77212;BME280;66206;0.000;0.000;2023-06-22T05:13:24;97947.73;;;29.44;27.66
77212;BME280;66206;0.000;0.000;2023-06-22T05:15:50;97947.87;;;29.30;27.63
77212;BME280;66206;0.000;0.000;2023-06-22T05:18:17;97950.02;;;29.17;27.68
77212;BME280;66206;0.000;0.000;2023-06-22T05:20:43;97958.73;;;29.29;27.67
77212;BME280;66206;0.000;0.000;2023-06-22T05:23:10;97957.60;;;29.28;27.72
77212;BME280;66206;0.000;0.000;2023-06-22T05:25:37;97949.48;;;29.25;27.73
77212;BME280;66206;0.000;0.000;2023-06-22T05:28:03;97945.03;;;29.26;27.69
77212;BME280;66206;0.000;0.000;2023-06-22T05:30:30;97948.99;;;29.39;27.62
77212;BME280;66206;0.000;0.000;2023-06-22T05:32:56;97951.65;;;29.28;27.69
77212;BME280;66206;0.000;0.000;2023-06-22T05:35:23;97947.32;;;29.33;27.73
77212;BME280;66206;0.000;0.000;2023-06-22T05:37:50;97946.19;;;29.10;27.75
77212;BME280;66206;0.000;0.000;2023-06-22T05:40:16;97948.51;;;29.19;27.82
77212;BME280;66206;0.000;0.000;2023-06-22T05:42:43;97948.12;;;29.14;27.77
77212;BME280;66206;0.000;0.000;2023-06-22T05:45:09;97948.01;;;29.29;27.78
77212;BME280;66206;0.000;0.000;2023-06-22T05:47:36;97950.75;;;29.12;27.77
77212;BME280;66206;0.000;0.000;2023-06-22T05:50:03;97949.86;;;29.23;27.81
77212;BME280;66206;0.000;0.000;2023-06-22T05:52:30;97940.16;;;29.24;27.81
77212;BME280;66206;0.000;0.000;2023-06-22T05:54:56;97936.24;;;29.18;27.89
77212;BME280;66206;0.000;0.000;2023-06-22T05:57:23;97926.62;;;29.11;27.83
77212;BME280;66206;0.000;0.000;2023-06-22T05:59:50;97925.91;;;29.16;27.81
77212;BME280;66206;0.000;0.000;2023-06-22T06:02:16;97926.24;;;29.10;27.83
77212;BME280;66206;0.000;0.000;2023-06-22T06:04:43;97930.53;;;29.22;27.75
77212;BME280;66206;0.000;0.000;2023-06-22T06:07:10;97937.43;;;29.09;27.80
77212;BME280;66206;0.000;0.000;2023-06-22T06:09:36;97935.47;;;29.01;27.79
77212;BME280;66206;0.000;0.000;2023-06-22T06:12:03;97933.99;;;29.38;27.72
77212;BME280;66206;0.000;0.000;2023-06-22T06:14:30;97929.34;;;29.33;27.75
77212;BME280;66206;0.000;0.000;2023-06-22T06:16:56;97931.17;;;29.23;27.82
77212;BME280;66206;0.000;0.000;2023-06-22T06:19:23;97931.85;;;29.17;27.82
77212;BME280;66206;0.000;0.000;2023-06-22T06:21:49;97934.72;;;29.24;27.79
77212;BME280;66206;0.000;0.000;2023-06-22T06:24:16;97930.00;;;29.10;27.72
77212;BME280;66206;0.000;0.000;2023-06-22T06:26:43;97923.19;;;29.16;27.80
77212;BME280;66206;0.000;0.000;2023-06-22T06:29:09;97914.05;;;29.33;27.83
77212;BME280;66206;0.000;0.000;2023-06-22T06:31:36;97912.98;;;29.03;27.66
77212;BME280;66206;0.000;0.000;2023-06-22T06:34:02;97914.81;;;29.14;27.73
77212;BME280;66206;0.000;0.000;2023-06-22T06:36:29;97921.70;;;29.03;27.65
77212;BME280;66206;0.000;0.000;2023-06-22T06:38:56;97918.79;;;29.07;27.64
77212;BME280;66206;0.000;0.000;2023-06-22T06:41:22;97912.78;;;29.16;27.72
77212;BME280;66206;0.000;0.000;2023-06-22T06:43:49;97909.24;;;28.98;27.66
77212;BME280;66206;0.000;0.000;2023-06-22T06:46:15;97905.88;;;29.23;27.51
77212;BME280;66206;0.000;0.000;2023-06-22T06:48:42;97907.88;;;29.28;27.40
77212;BME280;66206;0.000;0.000;2023-06-22T06:51:09;97910.97;;;29.32;27.30
77212;BME280;66206;0.000;0.000;2023-06-22T06:53:36;97904.91;;;29.35;27.35
77212;BME280;66206;0.000;0.000;2023-06-22T06:56:02;97902.82;;;29.46;27.36
77212;BME280;66206;0.000;0.000;2023-06-22T06:58:29;97896.13;;;29.25;27.40
77212;BME280;66206;0.000;0.000;2023-06-22T07:00:56;97890.47;;;29.30;27.41
77212;BME280;66206;0.000;0.000;2023-06-22T07:03:22;97885.66;;;29.34;27.32
77212;BME280;66206;0.000;0.000;2023-06-22T07:05:49;97884.71;;;29.29;27.37
77212;BME280;66206;0.000;0.000;2023-06-22T07:08:15;97884.68;;;29.39;27.31
77212;BME280;66206;0.000;0.000;2023-06-22T07:10:42;97882.64;;;29.58;27.24
77212;BME280;66206;0.000;0.000;2023-06-22T07:13:09;97883.40;;;29.50;27.25
77212;BME280;66206;0.000;0.000;2023-06-22T07:15:35;97881.61;;;29.48;27.27
77212;BME280;66206;0.000;0.000;2023-06-22T07:18:02;97881.56;;;29.37;27.28
77212;BME280;66206;0.000;0.000;2023-06-22T07:20:28;97882.10;;;29.41;27.27
77212;BME280;66206;0.000;0.000;2023-06-22T07:22:55;97884.40;;;29.37;27.24
77212;BME280;66206;0.000;0.000;2023-06-22T07:25:22;97885.85;;;29.37;27.24
77212;BME280;66206;0.000;0.000;2023-06-22T07:27:57;97883.96;;;29.44;27.20
77212;BME280;66206;0.000;0.000;2023-06-22T07:30:18;97877.49;;;29.35;27.23
77212;BME280;66206;0.000;0.000;2023-06-22T07:32:45;97876.96;;;29.47;27.22
77212;BME280;66206;0.000;0.000;2023-06-22T07:35:11;97874.04;;;29.34;27.30
77212;BME280;66206;0.000;0.000;2023-06-22T07:37:38;97876.60;;;29.48;27.14
77212;BME280;66206;0.000;0.000;2023-06-22T07:40:05;97876.50;;;29.51;27.20
77212;BME280;66206;0.000;0.000;2023-06-22T07:42:32;97867.06;;;29.43;27.24
77212;BME280;66206;0.000;0.000;2023-06-22T07:44:58;97867.20;;;29.44;27.17
77212;BME280;66206;0.000;0.000;2023-06-22T07:47:25;97866.67;;;29.45;27.19
77212;BME280;66206;0.000;0.000;2023-06-22T07:49:51;97870.64;;;29.60;27.13
77212;BME280;66206;0.000;0.000;2023-06-22T07:52:18;97870.35;;;29.49;27.16
77212;BME280;66206;0.000;0.000;2023-06-22T07:54:45;97873.47;;;29.51;27.15
77212;BME280;66206;0.000;0.000;2023-06-22T07:57:11;97869.60;;;29.48;27.19
77212;BME280;66206;0.000;0.000;2023-06-22T07:59:38;97863.33;;;29.53;27.15
77212;BME280;66206;0.000;0.000;2023-06-22T08:02:05;97860.57;;;29.51;27.17
77212;BME280;66206;0.000;0.000;2023-06-22T08:04:31;97860.56;;;29.48;27.22
77212;BME280;66206;0.000;0.000;2023-06-22T08:06:58;97861.29;;;29.48;27.14
77212;BME280;66206;0.000;0.000;2023-06-22T08:09:24;97862.27;;;29.45;27.17
77212;BME280;66206;0.000;0.000;2023-06-22T08:11:51;97861.54;;;29.48;27.15
77212;BME280;66206;0.000;0.000;2023-06-22T08:14:18;97865.32;;;29.57;27.13
77212;BME280;66206;0.000;0.000;2023-06-22T08:16:44;97867.90;;;29.50;27.11
77212;BME280;66206;0.000;0.000;2023-06-22T08:19:11;97861.82;;;29.53;27.19
77212;BME280;66206;0.000;0.000;2023-06-22T08:21:37;97854.95;;;29.54;27.13
77212;BME280;66206;0.000;0.000;2023-06-22T08:24:04;97853.14;;;29.48;27.16
77212;BME280;66206;0.000;0.000;2023-06-22T08:26:31;97848.11;;;29.46;27.20
77212;BME280;66206;0.000;0.000;2023-06-22T08:28:57;97850.33;;;29.47;27.22
77212;BME280;66206;0.000;0.000;2023-06-22T08:31:24;97849.72;;;29.49;27.22
77212;BME280;66206;0.000;0.000;2023-06-22T08:33:51;97845.02;;;29.47;27.20
77212;BME280;66206;0.000;0.000;2023-06-22T08:36:17;97846.09;;;29.57;27.22
77212;BME280;66206;0.000;0.000;2023-06-22T08:38:44;97850.06;;;29.44;27.23
77212;BME280;66206;0.000;0.000;2023-06-22T08:41:11;97849.14;;;29.49;27.24
77212;BME280;66206;0.000;0.000;2023-06-22T08:43:37;97853.87;;;29.69;27.21
77212;BME280;66206;0.000;0.000;2023-06-22T08:46:04;97864.59;;;29.46;27.19
77212;BME280;66206;0.000;0.000;2023-06-22T08:48:31;97864.85;;;29.44;27.22
77212;BME280;66206;0.000;0.000;2023-06-22T08:50:57;97860.86;;;29.45;27.19
77212;BME280;66206;0.000;0.000;2023-06-22T08:53:24;97855.61;;;29.45;27.26
77212;BME280;66206;0.000;0.000;2023-06-22T08:55:50;97845.97;;;29.57;27.20
77212;BME280;66206;0.000;0.000;2023-06-22T08:58:17;97845.15;;;29.47;27.16
77212;BME280;66206;0.000;0.000;2023-06-22T09:00:43;97844.69;;;29.55;27.19
77212;BME280;66206;0.000;0.000;2023-06-22T09:03:10;97843.41;;;29.51;27.24
77212;BME280;66206;0.000;0.000;2023-06-22T09:05:37;97841.32;;;29.56;27.20
77212;BME280;66206;0.000;0.000;2023-06-22T09:08:03;97841.42;;;29.59;27.14
77212;BME280;66206;0.000;0.000;2023-06-22T09:10:30;97840.61;;;29.56;27.16
77212;BME280;66206;0.000;0.000;2023-06-22T09:12:57;97842.97;;;29.55;27.12
77212;BME280;66206;0.000;0.000;2023-06-22T09:15:23;97836.81;;;29.51;27.16
77212;BME280;66206;0.000;0.000;2023-06-22T09:17:50;97831.31;;;29.49;27.19
77212;BME280;66206;0.000;0.000;2023-06-22T09:20:17;97828.75;;;29.56;27.12
77212;BME280;66206;0.000;0.000;2023-06-22T09:22:43;97819.03;;;29.54;27.16
77212;BME280;66206;0.000;0.000;2023-06-22T09:25:10;97808.56;;;29.53;27.13
77212;BME280;66206;0.000;0.000;2023-06-22T09:27:36;97802.96;;;29.56;27.12
77212;BME280;66206;0.000;0.000;2023-06-22T09:30:03;97793.54;;;29.57;27.11
77212;BME280;66206;0.000;0.000;2023-06-22T09:32:30;97790.96;;;29.56;27.11
77212;BME280;66206;0.000;0.000;2023-06-22T09:34:57;97790.40;;;29.56;27.16
77212;BME280;66206;0.000;0.000;2023-06-22T09:37:23;97787.65;;;29.48;27.20
77212;BME280;66206;0.000;0.000;2023-06-22T09:39:50;97785.72;;;29.56;27.14
77212;BME280;66206;0.000;0.000;2023-06-22T09:42:17;97786.91;;;29.50;27.17
77212;BME280;66206;0.000;0.000;2023-06-22T09:44:43;97786.80;;;29.50;27.25
77212;BME280;66206;0.000;0.000;2023-06-22T09:47:10;97781.32;;;29.50;27.18
77212;BME280;66206;0.000;0.000;2023-06-22T09:49:36;97779.77;;;29.50;27.24
77212;BME280;66206;0.000;0.000;2023-06-22T09:52:03;97774.23;;;29.54;27.19
77212;BME280;66206;0.000;0.000;2023-06-22T09:54:30;97769.68;;;29.56;27.20
77212;BME280;66206;0.000;0.000;2023-06-22T09:56:56;97769.50;;;29.51;27.17
77212;BME280;66206;0.000;0.000;2023-06-22T09:59:23;97765.70;;;29.59;27.17
77212;BME280;66206;0.000;0.000;2023-06-22T10:01:50;97763.62;;;29.59;27.20
77212;BME280;66206;0.000;0.000;2023-06-22T10:04:16;97765.28;;;29.51;27.17
77212;BME280;66206;0.000;0.000;2023-06-22T10:06:43;97765.64;;;29.48;27.22
77212;BME280;66206;0.000;0.000;2023-06-22T10:09:09;97760.58;;;29.45;27.23
77212;BME280;66206;0.000;0.000;2023-06-22T10:11:36;97760.68;;;29.61;27.22
77212;BME280;66206;0.000;0.000;2023-06-22T10:14:02;97751.44;;;29.45;27.18
77212;BME280;66206;0.000;0.000;2023-06-22T10:16:30;97747.68;;;29.54;27.20
77212;BME280;66206;0.000;0.000;2023-06-22T10:18:57;97748.14;;;29.46;27.20
77212;BME280;66206;0.000;0.000;2023-06-22T10:21:24;97762.10;;;29.45;27.25
77212;BME280;66206;0.000;0.000;2023-06-22T10:23:50;97765.48;;;29.43;27.28
77212;BME280;66206;0.000;0.000;2023-06-22T10:26:17;97764.76;;;29.50;27.20
77212;BME280;66206;0.000;0.000;2023-06-22T10:28:44;97768.65;;;29.45;27.27
77212;BME280;66206;0.000;0.000;2023-06-22T10:31:10;97771.60;;;29.53;27.27
77212;BME280;66206;0.000;0.000;2023-06-22T10:33:37;97770.55;;;29.51;27.23
77212;BME280;66206;0.000;0.000;2023-06-22T10:36:04;97772.04;;;29.52;27.16
77212;BME280;66206;0.000;0.000;2023-06-22T10:38:30;97771.39;;;29.56;27.19
77212;BME280;66206;0.000;0.000;2023-06-22T10:40:57;97776.88;;;29.61;27.17
77212;BME280;66206;0.000;0.000;2023-06-22T10:43:24;97778.00;;;29.45;27.25
77212;BME280;66206;0.000;0.000;2023-06-22T10:45:50;97773.22;;;29.49;27.20
77212;BME280;66206;0.000;0.000;2023-06-22T10:48:17;97779.39;;;29.59;27.17
77212;BME280;66206;0.000;0.000;2023-06-22T10:50:43;97786.87;;;29.57;27.14
77212;BME280;66206;0.000;0.000;2023-06-22T10:53:10;97782.31;;;29.50;27.20
77212;BME280;66206;0.000;0.000;2023-06-22T10:55:36;97783.79;;;29.57;27.14
77212;BME280;66206;0.000;0.000;2023-06-22T10:58:03;97778.09;;;29.65;27.09
77212;BME280;66206;0.000;0.000;2023-06-22T11:00:29;97771.51;;;29.55;27.12
77212;BME280;66206;0.000;0.000;2023-06-22T11:02:56;97775.85;;;29.50;27.21
77212;BME280;66206;0.000;0.000;2023-06-22T11:05:23;97770.53;;;29.59;27.20
77212;BME280;66206;0.000;0.000;2023-06-22T11:07:49;97763.66;;;29.55;27.20
77212;BME280;66206;0.000;0.000;2023-06-22T11:10:16;97753.39;;;29.62;27.20
77212;BME280;66206;0.000;0.000;2023-06-22T11:12:42;97751.22;;;29.57;27.14
77212;BME280;66206;0.000;0.000;2023-06-22T11:15:09;97743.94;;;29.67;27.09
77212;BME280;66206;0.000;0.000;2023-06-22T11:17:36;97737.35;;;29.59;27.09
77212;BME280;66206;0.000;0.000;2023-06-22T11:20:03;97732.78;;;29.53;27.12
77212;BME280;66206;0.000;0.000;2023-06-22T11:22:29;97728.48;;;29.54;27.15
77212;BME280;66206;0.000;0.000;2023-06-22T11:24:56;97728.81;;;29.56;27.16
77212;BME280;66206;0.000;0.000;2023-06-22T11:27:22;97730.31;;;29.56;27.22
77212;BME280;66206;0.000;0.000;2023-06-22T11:29:49;97722.32;;;29.54;27.15
77212;BME280;66206;0.000;0.000;2023-06-22T11:32:16;97721.51;;;29.50;27.17
77212;BME280;66206;0.000;0.000;2023-06-22T11:34:42;97719.71;;;29.49;27.18
77212;BME280;66206;0.000;0.000;2023-06-22T11:37:09;97728.98;;;29.51;27.14
77212;BME280;66206;0.000;0.000;2023-06-22T11:39:35;97713.75;;;29.53;27.27
77212;BME280;66206;0.000;0.000;2023-06-22T11:42:02;97707.74;;;29.59;27.35
77212;BME280;66206;0.000;0.000;2023-06-22T11:44:29;97707.11;;;29.84;27.72
77212;BME280;66206;0.000;0.000;2023-06-22T11:46:55;97705.76;;;29.75;27.38
77212;BME280;66206;0.000;0.000;2023-06-22T11:49:22;97696.60;;;29.76;27.58
77212;BME280;66206;0.000;0.000;2023-06-22T11:51:48;97690.89;;;29.65;27.46
77212;BME280;66206;0.000;0.000;2023-06-22T11:54:15;97686.20;;;29.67;27.49
77212;BME280;66206;0.000;0.000;2023-06-22T11:56:42;97677.57;;;29.60;27.61
77212;BME280;66206;0.000;0.000;2023-06-22T11:59:08;97672.09;;;29.67;27.60
77212;BME280;66206;0.000;0.000;2023-06-22T12:01:35;97665.59;;;29.59;27.82
77212;BME280;66206;0.000;0.000;2023-06-22T12:04:01;97664.89;;;29.48;27.90
77212;BME280;66206;0.000;0.000;2023-06-22T12:06:28;97664.93;;;29.60;28.09
77212;BME280;66206;0.000;0.000;2023-06-22T12:08:54;97671.14;;;29.46;28.02
77212;BME280;66206;0.000;0.000;2023-06-22T12:11:21;97666.69;;;29.43;27.97
77212;BME280;66206;0.000;0.000;2023-06-22T12:13:47;97662.44;;;29.48;28.03
77212;BME280;66206;0.000;0.000;2023-06-22T12:16:14;97660.80;;;29.63;28.02
77212;BME280;66206;0.000;0.000;2023-06-22T12:18:41;97650.79;;;29.48;28.04
77212;BME280;66206;0.000;0.000;2023-06-22T12:21:07;97643.59;;;29.53;28.15
77212;BME280;66206;0.000;0.000;2023-06-22T12:23:34;97644.51;;;29.69;28.04
77212;BME280;66206;0.000;0.000;2023-06-22T12:26:00;97636.65;;;29.72;28.06
77212;BME280;66206;0.000;0.000;2023-06-22T12:28:27;97629.91;;;29.87;27.97
77212;BME280;66206;0.000;0.000;2023-06-22T12:30:53;97619.55;;;29.77;28.23
77212;BME280;66206;0.000;0.000;2023-06-22T12:33:20;97610.70;;;29.84;28.52
77212;BME280;66206;0.000;0.000;2023-06-22T12:35:47;97612.49;;;29.85;28.21
77212;BME280;66206;0.000;0.000;2023-06-22T12:38:13;97600.84;;;29.88;28.24
77212;BME280;66206;0.000;0.000;2023-06-22T12:40:40;97600.82;;;29.82;28.41
77212;BME280;66206;0.000;0.000;2023-06-22T12:43:06;97602.24;;;29.65;28.55
77212;BME280;66206;0.000;0.000;2023-06-22T12:45:33;97599.55;;;29.82;28.40
77212;BME280;66206;0.000;0.000;2023-06-22T12:48:00;97599.30;;;29.72;28.58
77212;BME280;66206;0.000;0.000;2023-06-22T12:50:26;97603.49;;;29.73;28.50
77212;BME280;66206;0.000;0.000;2023-06-22T12:52:53;97600.54;;;29.71;28.57
77212;BME280;66206;0.000;0.000;2023-06-22T12:55:19;97597.93;;;29.80;28.41
77212;BME280;66206;0.000;0.000;2023-06-22T12:57:46;97594.86;;;29.69;28.55
77212;BME280;66206;0.000;0.000;2023-06-22T13:00:13;97593.31;;;29.73;28.52
77212;BME280;66206;0.000;0.000;2023-06-22T13:02:40;97590.37;;;29.69;28.79
77212;BME280;66206;0.000;0.000;2023-06-22T13:05:06;97594.41;;;29.61;28.89
77212;BME280;66206;0.000;0.000;2023-06-22T13:07:33;97593.70;;;29.62;28.90